Forside
METAR-TAF:

METAR-TAF

Lufthavne :

Čáslav, Tjekkiet

Breddekreds: 49-56-23N, længdekreds: 15-22-55E, højde: 242 m

Aktuelle vejr

Denne rapport blev lavet for 1 time og 12 minutter siden, kl. 22:00 UTC
Vind 2 kt fra varierende retninger
Temperatur 14°C
Fugtighed 82%
Tryk 1014 hPa
Sigt 10 km eller mere
ingen skyer under 1500m og ingen cumulonimbus

METAR: LKCV 222200Z VRB02KT CAVOK 14/11 Q1014 NOSIG

Tid: 01:12 (23:12 UTC)

Vejrudsigter

Denne rapport blev lavet for 6 timer og 12 minutter siden, kl. 17:00 UTC
Foreløbig gælder fra 22 på 18 UTC til 23 på 18 UTC
Vind 5 kt fra vest
Sigt 10 km eller mere
ingen skyer under 1500m og ingen cumulonimbus
ændring
fra 23 på 07 UTC til 23 på 09 UTC
Vind 8 kt fra nordvest
Midlertidig
fra 23 på 10 UTC til 23 på 13 UTC
Brudte skyer i en højde af 4000 ft

TAF: LKCV 221700Z 2218/2318 27005KT CAVOK BECMG 2307/2309 32008KT TEMPO 2310/2313 BKN040

Vejrobservationer og prognoser fra mere end 4000 lufthavne (METAR og TAF).

De gule og røde prikker repræsenterer de meteorologiske stationer.

Flyt musen over at se navnet på stationen.

Så klik over at se vejr observationer og prognoser.

At skifte det kort: Klik på de grønne knapper med et sort kors for at zoome ind; på den grønne knap med en bindestreg for at zoome ud; eller på de grønne pile for tilstødende kort.


METAR-TAF: